sensor_id;sensor_type;location;lat;lon;timestamp;temperature;humidity
52103;DHT22;38101;53.126;6.878;2023-02-01T00:02:09;6.70;99.90
52103;DHT22;38101;53.126;6.878;2023-02-01T00:04:35;6.70;99.90
52103;DHT22;38101;53.126;6.878;2023-02-01T00:07:01;6.70;99.90
52103;DHT22;38101;53.126;6.878;2023-02-01T00:09:27;6.60;99.90
52103;DHT22;38101;53.126;6.878;2023-02-01T00:11:52;6.70;99.90
52103;DHT22;38101;53.126;6.878;2023-02-01T00:14:18;6.60;99.90
52103;DHT22;38101;53.126;6.878;2023-02-01T00:16:44;6.70;99.90
52103;DHT22;38101;53.126;6.878;2023-02-01T00:19:13;6.70;99.90
52103;DHT22;38101;53.126;6.878;2023-02-01T00:21:39;6.80;99.90
52103;DHT22;38101;53.126;6.878;2023-02-01T00:24:05;6.80;99.90
52103;DHT22;38101;53.126;6.878;2023-02-01T00:26:33;6.70;99.90
52103;DHT22;38101;53.126;6.878;2023-02-01T00:29:00;6.70;99.90
52103;DHT22;38101;53.126;6.878;2023-02-01T00:31:26;6.60;99.90
52103;DHT22;38101;53.126;6.878;2023-02-01T00:33:51;6.70;99.90
52103;DHT22;38101;53.126;6.878;2023-02-01T00:36:17;6.70;99.90
52103;DHT22;38101;53.126;6.878;2023-02-01T00:38:43;6.60;99.90
52103;DHT22;38101;53.126;6.878;2023-02-01T00:41:14;6.60;99.90
52103;DHT22;38101;53.126;6.878;2023-02-01T00:43:40;6.60;99.90
52103;DHT22;38101;53.126;6.878;2023-02-01T00:46:06;6.60;99.90
52103;DHT22;38101;53.126;6.878;2023-02-01T00:48:32;6.70;99.90
52103;DHT22;38101;53.126;6.878;2023-02-01T00:51:02;6.60;99.90
52103;DHT22;38101;53.126;6.878;2023-02-01T00:53:29;6.70;99.90
52103;DHT22;38101;53.126;6.878;2023-02-01T00:55:54;6.80;99.90
52103;DHT22;38101;53.126;6.878;2023-02-01T00:58:21;6.80;99.90
52103;DHT22;38101;53.126;6.878;2023-02-01T01:00:49;6.80;99.90
52103;DHT22;38101;53.126;6.878;2023-02-01T01:03:15;6.80;99.90
52103;DHT22;38101;53.126;6.878;2023-02-01T01:05:47;6.80;99.90
52103;DHT22;38101;53.126;6.878;2023-02-01T01:08:17;6.80;99.90
52103;DHT22;38101;53.126;6.878;2023-02-01T01:10:43;6.90;99.90
52103;DHT22;38101;53.126;6.878;2023-02-01T01:13:09;6.80;99.90
52103;DHT22;38101;53.126;6.878;2023-02-01T01:15:39;6.70;99.90
52103;DHT22;38101;53.126;6.878;2023-02-01T01:18:05;6.70;99.90
52103;DHT22;38101;53.126;6.878;2023-02-01T01:20:34;6.70;99.90
52103;DHT22;38101;53.126;6.878;2023-02-01T01:23:00;6.70;99.90
52103;DHT22;38101;53.126;6.878;2023-02-01T01:25:26;6.70;99.90
52103;DHT22;38101;53.126;6.878;2023-02-01T01:27:51;6.70;99.90
52103;DHT22;38101;53.126;6.878;2023-02-01T01:30:17;6.80;99.90
52103;DHT22;38101;53.126;6.878;2023-02-01T01:32:43;6.70;99.90
52103;DHT22;38101;53.126;6.878;2023-02-01T01:35:10;6.80;99.90
52103;DHT22;38101;53.126;6.878;2023-02-01T01:37:36;6.80;99.90
52103;DHT22;38101;53.126;6.878;2023-02-01T01:40:03;6.70;99.90
52103;DHT22;38101;53.126;6.878;2023-02-01T01:42:29;6.70;99.90
52103;DHT22;38101;53.126;6.878;2023-02-01T01:45:00;6.70;99.90
52103;DHT22;38101;53.126;6.878;2023-02-01T01:47:32;6.90;99.90
52103;DHT22;38101;53.126;6.878;2023-02-01T01:50:00;6.80;99.90
52103;DHT22;38101;53.126;6.878;2023-02-01T01:52:26;6.90;99.90
52103;DHT22;38101;53.126;6.878;2023-02-01T01:54:53;6.80;99.90
52103;DHT22;38101;53.126;6.878;2023-02-01T01:57:24;7.00;99.90
52103;DHT22;38101;53.126;6.878;2023-02-01T01:59:58;6.90;99.90
52103;DHT22;38101;53.126;6.878;2023-02-01T02:02:26;6.90;99.90
52103;DHT22;38101;53.126;6.878;2023-02-01T02:04:52;6.80;99.90
52103;DHT22;38101;53.126;6.878;2023-02-01T02:07:23;6.90;99.90
52103;DHT22;38101;53.126;6.878;2023-02-01T02:09:50;6.80;99.90
52103;DHT22;38101;53.126;6.878;2023-02-01T02:12:16;6.90;99.90
52103;DHT22;38101;53.126;6.878;2023-02-01T02:14:42;6.90;99.90
52103;DHT22;38101;53.126;6.878;2023-02-01T02:29:17;6.70;99.90
52103;DHT22;38101;53.126;6.878;2023-02-01T02:34:19;6.70;99.90
52103;DHT22;38101;53.126;6.878;2023-02-01T02:42:58;6.60;99.90
52103;DHT22;38101;53.126;6.878;2023-02-01T02:46:03;6.60;99.90
52103;DHT22;38101;53.126;6.878;2023-02-01T02:52:04;6.50;99.90
52103;DHT22;38101;53.126;6.878;2023-02-01T02:54:48;6.50;99.90
52103;DHT22;38101;53.126;6.878;2023-02-01T02:57:33;6.50;99.90
52103;DHT22;38101;53.126;6.878;2023-02-01T03:00:20;6.50;99.90
52103;DHT22;38101;53.126;6.878;2023-02-01T03:03:05;6.40;99.90
52103;DHT22;38101;53.126;6.878;2023-02-01T03:05:50;6.30;99.90
52103;DHT22;38101;53.126;6.878;2023-02-01T03:08:23;6.30;99.90
52103;DHT22;38101;53.126;6.878;2023-02-01T03:11:08;6.40;99.90
52103;DHT22;38101;53.126;6.878;2023-02-01T03:19:22;6.50;99.90
52103;DHT22;38101;53.126;6.878;2023-02-01T03:22:08;6.50;99.90
52103;DHT22;38101;53.126;6.878;2023-02-01T03:24:45;6.60;99.90
52103;DHT22;38101;53.126;6.878;2023-02-01T03:27:24;6.60;99.90
52103;DHT22;38101;53.126;6.878;2023-02-01T03:29:59;6.60;99.90
52103;DHT22;38101;53.126;6.878;2023-02-01T03:32:27;6.70;99.90
52103;DHT22;38101;53.126;6.878;2023-02-01T03:34:53;6.70;99.90
52103;DHT22;38101;53.126;6.878;2023-02-01T03:37:27;6.80;99.90
52103;DHT22;38101;53.126;6.878;2023-02-01T03:40:11;6.80;99.90
52103;DHT22;38101;53.126;6.878;2023-02-01T03:42:42;6.80;99.90
52103;DHT22;38101;53.126;6.878;2023-02-01T03:45:13;6.80;99.90
52103;DHT22;38101;53.126;6.878;2023-02-01T03:47:46;6.80;99.90
52103;DHT22;38101;53.126;6.878;2023-02-01T03:50:18;6.80;99.90
52103;DHT22;38101;53.126;6.878;2023-02-01T03:52:59;6.80;99.90
52103;DHT22;38101;53.126;6.878;2023-02-01T03:55:28;6.80;99.90
52103;DHT22;38101;53.126;6.878;2023-02-01T03:58:07;6.90;99.90
52103;DHT22;38101;53.126;6.878;2023-02-01T04:00:35;6.90;99.90
52103;DHT22;38101;53.126;6.878;2023-02-01T04:03:02;6.90;99.90
52103;DHT22;38101;53.126;6.878;2023-02-01T04:05:29;6.90;99.90
52103;DHT22;38101;53.126;6.878;2023-02-01T04:07:56;6.80;99.90
52103;DHT22;38101;53.126;6.878;2023-02-01T04:10:21;6.80;99.90
52103;DHT22;38101;53.126;6.878;2023-02-01T04:12:47;6.90;99.90
52103;DHT22;38101;53.126;6.878;2023-02-01T04:15:13;6.90;99.90
52103;DHT22;38101;53.126;6.878;2023-02-01T04:17:39;6.90;99.90
52103;DHT22;38101;53.126;6.878;2023-02-01T04:20:05;6.80;99.90
52103;DHT22;38101;53.126;6.878;2023-02-01T04:22:30;6.80;99.90
52103;DHT22;38101;53.126;6.878;2023-02-01T04:24:56;6.90;99.90
52103;DHT22;38101;53.126;6.878;2023-02-01T04:27:22;6.80;99.90
52103;DHT22;38101;53.126;6.878;2023-02-01T04:29:47;6.80;99.90
52103;DHT22;38101;53.126;6.878;2023-02-01T04:32:16;6.80;99.90
52103;DHT22;38101;53.126;6.878;2023-02-01T04:34:42;6.90;99.90
52103;DHT22;38101;53.126;6.878;2023-02-01T04:37:07;6.90;99.90
52103;DHT22;38101;53.126;6.878;2023-02-01T04:39:33;6.80;99.90
52103;DHT22;38101;53.126;6.878;2023-02-01T04:41:59;6.80;99.90
52103;DHT22;38101;53.126;6.878;2023-02-01T04:44:24;6.90;99.90
52103;DHT22;38101;53.126;6.878;2023-02-01T04:46:50;6.90;99.90
52103;DHT22;38101;53.126;6.878;2023-02-01T04:49:16;6.80;99.90
52103;DHT22;38101;53.126;6.878;2023-02-01T04:51:42;6.80;99.90
52103;DHT22;38101;53.126;6.878;2023-02-01T04:54:08;6.80;99.90
52103;DHT22;38101;53.126;6.878;2023-02-01T04:56:34;6.90;99.90
52103;DHT22;38101;53.126;6.878;2023-02-01T04:59:00;6.90;99.90
52103;DHT22;38101;53.126;6.878;2023-02-01T05:01:27;6.90;99.90
52103;DHT22;38101;53.126;6.878;2023-02-01T05:03:53;6.90;99.90
52103;DHT22;38101;53.126;6.878;2023-02-01T05:06:19;6.90;99.90
52103;DHT22;38101;53.126;6.878;2023-02-01T05:08:45;6.90;99.90
52103;DHT22;38101;53.126;6.878;2023-02-01T05:11:10;6.90;99.90
52103;DHT22;38101;53.126;6.878;2023-02-01T05:13:56;6.70;99.90
52103;DHT22;38101;53.126;6.878;2023-02-01T05:16:21;6.90;99.90
52103;DHT22;38101;53.126;6.878;2023-02-01T05:18:47;6.90;99.90
52103;DHT22;38101;53.126;6.878;2023-02-01T05:21:13;7.00;99.90
52103;DHT22;38101;53.126;6.878;2023-02-01T05:23:38;7.00;99.90
52103;DHT22;38101;53.126;6.878;2023-02-01T05:26:23;6.90;99.90
52103;DHT22;38101;53.126;6.878;2023-02-01T05:28:49;6.90;99.90
52103;DHT22;38101;53.126;6.878;2023-02-01T05:31:15;7.00;99.90
52103;DHT22;38101;53.126;6.878;2023-02-01T05:33:41;6.90;99.90
52103;DHT22;38101;53.126;6.878;2023-02-01T05:36:07;6.90;99.90
52103;DHT22;38101;53.126;6.878;2023-02-01T05:38:32;6.90;99.90
52103;DHT22;38101;53.126;6.878;2023-02-01T05:40:58;6.90;99.90
52103;DHT22;38101;53.126;6.878;2023-02-01T05:43:24;6.90;99.90
52103;DHT22;38101;53.126;6.878;2023-02-01T05:45:51;6.80;99.90
52103;DHT22;38101;53.126;6.878;2023-02-01T05:48:17;6.90;99.90
52103;DHT22;38101;53.126;6.878;2023-02-01T05:50:43;6.80;99.90
52103;DHT22;38101;53.126;6.878;2023-02-01T05:53:09;6.70;99.90
52103;DHT22;38101;53.126;6.878;2023-02-01T05:55:36;6.80;99.90
52103;DHT22;38101;53.126;6.878;2023-02-01T05:58:01;6.90;99.90
52103;DHT22;38101;53.126;6.878;2023-02-01T06:00:27;6.90;99.90
52103;DHT22;38101;53.126;6.878;2023-02-01T06:02:52;6.90;99.90
52103;DHT22;38101;53.126;6.878;2023-02-01T06:05:18;6.90;99.90
52103;DHT22;38101;53.126;6.878;2023-02-01T06:07:44;6.80;99.90
52103;DHT22;38101;53.126;6.878;2023-02-01T06:10:10;6.90;99.90
52103;DHT22;38101;53.126;6.878;2023-02-01T06:12:35;6.80;99.90
52103;DHT22;38101;53.126;6.878;2023-02-01T06:15:01;6.80;99.90
52103;DHT22;38101;53.126;6.878;2023-02-01T06:17:27;6.90;99.90
52103;DHT22;38101;53.126;6.878;2023-02-01T06:19:52;6.90;99.90
52103;DHT22;38101;53.126;6.878;2023-02-01T06:22:18;6.90;99.90
52103;DHT22;38101;53.126;6.878;2023-02-01T06:24:44;7.00;99.90
52103;DHT22;38101;53.126;6.878;2023-02-01T06:27:10;7.00;99.90
52103;DHT22;38101;53.126;6.878;2023-02-01T06:29:36;6.90;99.90
52103;DHT22;38101;53.126;6.878;2023-02-01T06:32:01;6.90;99.90
52103;DHT22;38101;53.126;6.878;2023-02-01T06:34:28;6.90;99.90
52103;DHT22;38101;53.126;6.878;2023-02-01T06:36:54;6.90;99.90
52103;DHT22;38101;53.126;6.878;2023-02-01T06:39:20;6.90;99.90
52103;DHT22;38101;53.126;6.878;2023-02-01T06:41:47;6.90;99.90
52103;DHT22;38101;53.126;6.878;2023-02-01T06:44:13;6.80;99.90
52103;DHT22;38101;53.126;6.878;2023-02-01T06:46:39;6.80;99.90
52103;DHT22;38101;53.126;6.878;2023-02-01T06:49:04;6.90;99.90
52103;DHT22;38101;53.126;6.878;2023-02-01T06:51:30;6.90;99.90
52103;DHT22;38101;53.126;6.878;2023-02-01T06:53:56;6.80;99.90
52103;DHT22;38101;53.126;6.878;2023-02-01T06:56:22;6.80;99.90
52103;DHT22;38101;53.126;6.878;2023-02-01T06:58:48;6.80;99.90
52103;DHT22;38101;53.126;6.878;2023-02-01T07:01:15;6.80;99.90
52103;DHT22;38101;53.126;6.878;2023-02-01T07:03:41;6.90;99.90
52103;DHT22;38101;53.126;6.878;2023-02-01T07:06:07;6.90;99.90
52103;DHT22;38101;53.126;6.878;2023-02-01T07:08:36;6.90;99.90
52103;DHT22;38101;53.126;6.878;2023-02-01T07:11:10;6.90;99.90
52103;DHT22;38101;53.126;6.878;2023-02-01T07:13:36;7.10;99.90
52103;DHT22;38101;53.126;6.878;2023-02-01T07:16:04;6.90;99.90
52103;DHT22;38101;53.126;6.878;2023-02-01T07:18:30;7.00;99.90
52103;DHT22;38101;53.126;6.878;2023-02-01T07:20:57;7.00;99.90
52103;DHT22;38101;53.126;6.878;2023-02-01T07:23:23;7.00;99.90
52103;DHT22;38101;53.126;6.878;2023-02-01T07:25:56;6.90;99.90
52103;DHT22;38101;53.126;6.878;2023-02-01T07:28:22;6.90;99.90
52103;DHT22;38101;53.126;6.878;2023-02-01T07:30:48;7.00;99.90
52103;DHT22;38101;53.126;6.878;2023-02-01T07:33:23;7.00;99.90
52103;DHT22;38101;53.126;6.878;2023-02-01T07:35:50;6.90;99.90
52103;DHT22;38101;53.126;6.878;2023-02-01T07:38:17;6.90;99.90
52103;DHT22;38101;53.126;6.878;2023-02-01T07:40:42;6.90;99.90
52103;DHT22;38101;53.126;6.878;2023-02-01T07:43:08;6.90;99.90
52103;DHT22;38101;53.126;6.878;2023-02-01T07:45:35;7.00;99.90
52103;DHT22;38101;53.126;6.878;2023-02-01T07:48:01;6.90;99.90
52103;DHT22;38101;53.126;6.878;2023-02-01T07:50:27;6.90;99.90
52103;DHT22;38101;53.126;6.878;2023-02-01T07:52:53;6.90;99.90
52103;DHT22;38101;53.126;6.878;2023-02-01T07:55:20;6.90;99.90
52103;DHT22;38101;53.126;6.878;2023-02-01T07:57:46;6.90;99.90
52103;DHT22;38101;53.126;6.878;2023-02-01T08:00:12;6.90;99.90
52103;DHT22;38101;53.126;6.878;2023-02-01T08:03:00;6.90;99.90
52103;DHT22;38101;53.126;6.878;2023-02-01T08:05:26;7.00;99.90
52103;DHT22;38101;53.126;6.878;2023-02-01T08:07:52;7.00;99.90
52103;DHT22;38101;53.126;6.878;2023-02-01T08:10:19;7.00;99.90
52103;DHT22;38101;53.126;6.878;2023-02-01T08:12:45;7.00;99.90
52103;DHT22;38101;53.126;6.878;2023-02-01T08:15:15;7.00;99.90
52103;DHT22;38101;53.126;6.878;2023-02-01T08:17:47;7.00;99.90
52103;DHT22;38101;53.126;6.878;2023-02-01T08:20:13;7.00;99.90
52103;DHT22;38101;53.126;6.878;2023-02-01T08:22:39;7.00;99.90
52103;DHT22;38101;53.126;6.878;2023-02-01T08:25:05;6.90;99.90
52103;DHT22;38101;53.126;6.878;2023-02-01T08:27:35;7.00;99.90
52103;DHT22;38101;53.126;6.878;2023-02-01T08:30:00;7.00;99.90
52103;DHT22;38101;53.126;6.878;2023-02-01T08:32:27;7.00;99.90
52103;DHT22;38101;53.126;6.878;2023-02-01T08:34:53;6.90;99.90
52103;DHT22;38101;53.126;6.878;2023-02-01T08:37:19;7.00;99.90
52103;DHT22;38101;53.126;6.878;2023-02-01T08:39:44;6.90;99.90
52103;DHT22;38101;53.126;6.878;2023-02-01T08:42:11;7.00;99.90
52103;DHT22;38101;53.126;6.878;2023-02-01T08:44:55;7.00;99.90
52103;DHT22;38101;53.126;6.878;2023-02-01T08:47:21;6.90;99.90
52103;DHT22;38101;53.126;6.878;2023-02-01T08:49:47;7.00;99.90
52103;DHT22;38101;53.126;6.878;2023-02-01T08:52:13;7.00;99.90
52103;DHT22;38101;53.126;6.878;2023-02-01T08:54:39;7.00;99.90
52103;DHT22;38101;53.126;6.878;2023-02-01T08:57:06;7.00;99.90
52103;DHT22;38101;53.126;6.878;2023-02-01T08:59:32;7.00;99.90
52103;DHT22;38101;53.126;6.878;2023-02-01T09:01:58;7.10;99.90
52103;DHT22;38101;53.126;6.878;2023-02-01T09:04:23;7.20;99.90
52103;DHT22;38101;53.126;6.878;2023-02-01T09:06:49;7.20;99.90
52103;DHT22;38101;53.126;6.878;2023-02-01T09:09:15;7.10;99.90
52103;DHT22;38101;53.126;6.878;2023-02-01T09:11:41;7.10;99.90
52103;DHT22;38101;53.126;6.878;2023-02-01T09:14:06;7.10;99.90
52103;DHT22;38101;53.126;6.878;2023-02-01T09:16:32;7.00;99.90
52103;DHT22;38101;53.126;6.878;2023-02-01T09:18:58;7.00;99.90
52103;DHT22;38101;53.126;6.878;2023-02-01T09:21:24;7.10;99.90
52103;DHT22;38101;53.126;6.878;2023-02-01T09:23:52;7.10;99.90
52103;DHT22;38101;53.126;6.878;2023-02-01T09:26:18;7.10;99.90
52103;DHT22;38101;53.126;6.878;2023-02-01T09:28:44;7.10;99.90
52103;DHT22;38101;53.126;6.878;2023-02-01T09:31:10;7.10;99.90
52103;DHT22;38101;53.126;6.878;2023-02-01T09:33:35;7.10;99.90
52103;DHT22;38101;53.126;6.878;2023-02-01T09:36:04;7.10;99.90
52103;DHT22;38101;53.126;6.878;2023-02-01T09:38:30;7.10;99.90
52103;DHT22;38101;53.126;6.878;2023-02-01T09:40:57;7.10;99.90
52103;DHT22;38101;53.126;6.878;2023-02-01T09:46:21;7.10;99.90
52103;DHT22;38101;53.126;6.878;2023-02-01T09:48:50;7.10;99.90
52103;DHT22;38101;53.126;6.878;2023-02-01T09:51:28;7.10;99.90
52103;DHT22;38101;53.126;6.878;2023-02-01T09:54:05;7.20;99.90
52103;DHT22;38101;53.126;6.878;2023-02-01T09:57:11;7.10;99.90
52103;DHT22;38101;53.126;6.878;2023-02-01T09:59:54;7.20;99.90
52103;DHT22;38101;53.126;6.878;2023-02-01T10:02:24;7.10;99.90
52103;DHT22;38101;53.126;6.878;2023-02-01T10:04:54;7.20;99.90
52103;DHT22;38101;53.126;6.878;2023-02-01T10:11:02;7.10;99.90
52103;DHT22;38101;53.126;6.878;2023-02-01T10:24:28;6.90;99.90
52103;DHT22;38101;53.126;6.878;2023-02-01T10:27:12;6.80;99.90
52103;DHT22;38101;53.126;6.878;2023-02-01T10:29:44;6.80;99.90
52103;DHT22;38101;53.126;6.878;2023-02-01T10:32:32;6.70;99.90
52103;DHT22;38101;53.126;6.878;2023-02-01T10:35:16;6.70;99.90
52103;DHT22;38101;53.126;6.878;2023-02-01T10:37:43;6.90;99.90
52103;DHT22;38101;53.126;6.878;2023-02-01T10:40:20;6.90;99.90
52103;DHT22;38101;53.126;6.878;2023-02-01T10:42:48;6.90;99.90
52103;DHT22;38101;53.126;6.878;2023-02-01T10:45:18;6.90;99.90
52103;DHT22;38101;53.126;6.878;2023-02-01T10:47:47;7.00;99.90
52103;DHT22;38101;53.126;6.878;2023-02-01T10:50:41;7.10;99.90
52103;DHT22;38101;53.126;6.878;2023-02-01T10:53:24;7.10;99.90
52103;DHT22;38101;53.126;6.878;2023-02-01T10:55:53;7.10;99.90
52103;DHT22;38101;53.126;6.878;2023-02-01T10:58:45;7.20;99.90
52103;DHT22;38101;53.126;6.878;2023-02-01T11:01:21;7.30;99.90
52103;DHT22;38101;53.126;6.878;2023-02-01T11:09:08;7.40;99.90
52103;DHT22;38101;53.126;6.878;2023-02-01T11:12:01;7.50;99.90
52103;DHT22;38101;53.126;6.878;2023-02-01T11:14:34;7.50;99.90
52103;DHT22;38101;53.126;6.878;2023-02-01T11:17:15;7.50;99.90
52103;DHT22;38101;53.126;6.878;2023-02-01T11:19:55;7.50;99.90
52103;DHT22;38101;53.126;6.878;2023-02-01T11:22:21;7.50;99.90
52103;DHT22;38101;53.126;6.878;2023-02-01T11:24:47;7.40;99.90
52103;DHT22;38101;53.126;6.878;2023-02-01T11:27:18;7.20;99.90
52103;DHT22;38101;53.126;6.878;2023-02-01T11:29:49;7.10;99.90
52103;DHT22;38101;53.126;6.878;2023-02-01T11:32:17;6.90;99.90
52103;DHT22;38101;53.126;6.878;2023-02-01T11:34:47;6.80;99.90
52103;DHT22;38101;53.126;6.878;2023-02-01T11:40:00;6.70;99.90
52103;DHT22;38101;53.126;6.878;2023-02-01T11:42:28;6.70;99.90
52103;DHT22;38101;53.126;6.878;2023-02-01T11:47:55;6.80;99.90
52103;DHT22;38101;53.126;6.878;2023-02-01T11:51:11;6.70;99.90
52103;DHT22;38101;53.126;6.878;2023-02-01T11:53:25;6.50;99.90
52103;DHT22;38101;53.126;6.878;2023-02-01T12:09:07;4.70;99.90
52103;DHT22;38101;53.126;6.878;2023-02-01T12:17:50;4.40;99.90
52103;DHT22;38101;53.126;6.878;2023-02-01T12:20:47;4.20;99.90
52103;DHT22;38101;53.126;6.878;2023-02-01T12:23:46;4.20;99.90
52103;DHT22;38101;53.126;6.878;2023-02-01T12:32:04;4.30;99.90
52103;DHT22;38101;53.126;6.878;2023-02-01T12:40:41;4.40;99.90
52103;DHT22;38101;53.126;6.878;2023-02-01T12:43:16;4.40;99.90
52103;DHT22;38101;53.126;6.878;2023-02-01T12:51:07;4.80;99.90
52103;DHT22;38101;53.126;6.878;2023-02-01T12:53:47;5.00;99.90
52103;DHT22;38101;53.126;6.878;2023-02-01T12:56:40;5.30;99.90
52103;DHT22;38101;53.126;6.878;2023-02-01T12:59:37;5.90;99.90
52103;DHT22;38101;53.126;6.878;2023-02-01T13:02:15;6.50;99.90
52103;DHT22;38101;53.126;6.878;2023-02-01T13:05:27;6.90;99.90
52103;DHT22;38101;53.126;6.878;2023-02-01T13:08:02;7.10;99.90
52103;DHT22;38101;53.126;6.878;2023-02-01T13:10:43;7.30;99.90
52103;DHT22;38101;53.126;6.878;2023-02-01T13:18:21;7.40;99.90
52103;DHT22;38101;53.126;6.878;2023-02-01T13:21:38;7.40;99.90
52103;DHT22;38101;53.126;6.878;2023-02-01T13:23:38;7.50;99.90
52103;DHT22;38101;53.126;6.878;2023-02-01T13:26:05;7.50;99.90
52103;DHT22;38101;53.126;6.878;2023-02-01T13:37:14;7.80;99.90
52103;DHT22;38101;53.126;6.878;2023-02-01T13:43:10;7.90;99.90
52103;DHT22;38101;53.126;6.878;2023-02-01T13:45:43;7.90;99.90
52103;DHT22;38101;53.126;6.878;2023-02-01T13:48:28;8.00;99.90
52103;DHT22;38101;53.126;6.878;2023-02-01T13:50:57;8.10;99.90
52103;DHT22;38101;53.126;6.878;2023-02-01T13:53:47;8.10;99.90
52103;DHT22;38101;53.126;6.878;2023-02-01T13:58:43;8.10;99.90
52103;DHT22;38101;53.126;6.878;2023-02-01T14:11:47;8.00;99.90
52103;DHT22;38101;53.126;6.878;2023-02-01T14:21:53;8.00;99.90
52103;DHT22;38101;53.126;6.878;2023-02-01T14:24:29;8.10;99.90
52103;DHT22;38101;53.126;6.878;2023-02-01T14:26:57;8.20;99.90
52103;DHT22;38101;53.126;6.878;2023-02-01T14:29:36;8.10;99.90
52103;DHT22;38101;53.126;6.878;2023-02-01T14:32:20;8.00;99.90
52103;DHT22;38101;53.126;6.878;2023-02-01T14:55:53;8.00;99.90
52103;DHT22;38101;53.126;6.878;2023-02-01T14:58:42;8.00;99.90
52103;DHT22;38101;53.126;6.878;2023-02-01T15:04:05;8.10;99.90
52103;DHT22;38101;53.126;6.878;2023-02-01T15:11:56;8.10;99.90
52103;DHT22;38101;53.126;6.878;2023-02-01T15:14:23;8.00;99.90
52103;DHT22;38101;53.126;6.878;2023-02-01T15:16:49;8.00;99.90
52103;DHT22;38101;53.126;6.878;2023-02-01T15:19:27;8.00;99.90
52103;DHT22;38101;53.126;6.878;2023-02-01T15:21:57;7.90;99.90
52103;DHT22;38101;53.126;6.878;2023-02-01T15:24:29;8.00;99.90
52103;DHT22;38101;53.126;6.878;2023-02-01T15:27:02;7.90;99.90
52103;DHT22;38101;53.126;6.878;2023-02-01T15:29:29;8.00;99.90
52103;DHT22;38101;53.126;6.878;2023-02-01T15:31:58;7.90;99.90
52103;DHT22;38101;53.126;6.878;2023-02-01T15:34:44;7.80;99.90
52103;DHT22;38101;53.126;6.878;2023-02-01T15:37:14;7.90;99.90
52103;DHT22;38101;53.126;6.878;2023-02-01T15:42:29;7.80;99.90
52103;DHT22;38101;53.126;6.878;2023-02-01T15:44:54;7.90;99.90
52103;DHT22;38101;53.126;6.878;2023-02-01T15:47:26;8.00;99.90
52103;DHT22;38101;53.126;6.878;2023-02-01T15:49:54;8.00;99.90
52103;DHT22;38101;53.126;6.878;2023-02-01T15:55:01;7.90;99.90
52103;DHT22;38101;53.126;6.878;2023-02-01T15:57:36;7.90;99.90
52103;DHT22;38101;53.126;6.878;2023-02-01T16:00:06;8.00;99.90
52103;DHT22;38101;53.126;6.878;2023-02-01T16:02:42;7.90;99.90
52103;DHT22;38101;53.126;6.878;2023-02-01T16:05:44;7.90;99.90
52103;DHT22;38101;53.126;6.878;2023-02-01T16:08:13;7.80;99.90
52103;DHT22;38101;53.126;6.878;2023-02-01T16:10:49;7.80;99.90
52103;DHT22;38101;53.126;6.878;2023-02-01T16:13:17;7.70;99.90
52103;DHT22;38101;53.126;6.878;2023-02-01T16:15:43;7.80;99.90
52103;DHT22;38101;53.126;6.878;2023-02-01T16:18:10;7.80;99.90
52103;DHT22;38101;53.126;6.878;2023-02-01T16:20:36;7.70;99.90
52103;DHT22;38101;53.126;6.878;2023-02-01T16:23:03;7.50;99.90
52103;DHT22;38101;53.126;6.878;2023-02-01T16:25:29;7.60;99.90
52103;DHT22;38101;53.126;6.878;2023-02-01T16:27:55;7.70;99.90
52103;DHT22;38101;53.126;6.878;2023-02-01T16:30:21;7.70;99.90
52103;DHT22;38101;53.126;6.878;2023-02-01T16:32:49;7.60;99.90
52103;DHT22;38101;53.126;6.878;2023-02-01T16:35:21;7.60;99.90
52103;DHT22;38101;53.126;6.878;2023-02-01T16:37:47;7.60;99.90
52103;DHT22;38101;53.126;6.878;2023-02-01T16:40:15;7.50;99.90
52103;DHT22;38101;53.126;6.878;2023-02-01T16:42:41;7.50;99.90
52103;DHT22;38101;53.126;6.878;2023-02-01T16:45:07;7.30;99.90
52103;DHT22;38101;53.126;6.878;2023-02-01T16:47:34;7.40;99.90
52103;DHT22;38101;53.126;6.878;2023-02-01T16:50:01;7.40;99.90
52103;DHT22;38101;53.126;6.878;2023-02-01T16:52:27;7.40;99.90
52103;DHT22;38101;53.126;6.878;2023-02-01T16:54:53;7.40;99.90
52103;DHT22;38101;53.126;6.878;2023-02-01T16:57:20;7.30;99.90
52103;DHT22;38101;53.126;6.878;2023-02-01T16:59:49;7.30;99.90
52103;DHT22;38101;53.126;6.878;2023-02-01T17:02:17;7.30;99.90
52103;DHT22;38101;53.126;6.878;2023-02-01T17:04:45;7.20;99.90
52103;DHT22;38101;53.126;6.878;2023-02-01T17:07:18;7.20;99.90
52103;DHT22;38101;53.126;6.878;2023-02-01T17:09:45;7.20;99.90
52103;DHT22;38101;53.126;6.878;2023-02-01T17:12:31;7.30;99.90
52103;DHT22;38101;53.126;6.878;2023-02-01T17:14:59;7.30;99.90
52103;DHT22;38101;53.126;6.878;2023-02-01T17:17:33;7.20;99.90
52103;DHT22;38101;53.126;6.878;2023-02-01T17:20:00;7.10;99.90
52103;DHT22;38101;53.126;6.878;2023-02-01T17:22:26;7.10;99.90
52103;DHT22;38101;53.126;6.878;2023-02-01T17:24:52;7.10;99.90
52103;DHT22;38101;53.126;6.878;2023-02-01T17:27:18;7.20;99.90
52103;DHT22;38101;53.126;6.878;2023-02-01T17:29:44;7.20;99.90
52103;DHT22;38101;53.126;6.878;2023-02-01T17:32:21;7.10;99.90
52103;DHT22;38101;53.126;6.878;2023-02-01T17:34:47;7.20;99.90
52103;DHT22;38101;53.126;6.878;2023-02-01T17:37:24;7.10;99.90
52103;DHT22;38101;53.126;6.878;2023-02-01T17:39:50;7.20;99.90
52103;DHT22;38101;53.126;6.878;2023-02-01T17:42:23;7.10;99.90
52103;DHT22;38101;53.126;6.878;2023-02-01T17:44:58;7.10;99.90
52103;DHT22;38101;53.126;6.878;2023-02-01T17:47:25;7.10;99.90
52103;DHT22;38101;53.126;6.878;2023-02-01T17:49:50;7.20;99.90
52103;DHT22;38101;53.126;6.878;2023-02-01T17:52:22;7.20;99.90
52103;DHT22;38101;53.126;6.878;2023-02-01T17:54:48;7.10;99.90
52103;DHT22;38101;53.126;6.878;2023-02-01T17:57:16;7.10;99.90
52103;DHT22;38101;53.126;6.878;2023-02-01T17:59:42;7.20;99.90
52103;DHT22;38101;53.126;6.878;2023-02-01T18:02:23;7.10;99.90
52103;DHT22;38101;53.126;6.878;2023-02-01T18:04:50;7.10;99.90
52103;DHT22;38101;53.126;6.878;2023-02-01T18:07:16;7.10;99.90
52103;DHT22;38101;53.126;6.878;2023-02-01T18:09:42;6.90;99.90
52103;DHT22;38101;53.126;6.878;2023-02-01T18:12:19;7.00;99.90
52103;DHT22;38101;53.126;6.878;2023-02-01T18:14:46;6.90;99.90
52103;DHT22;38101;53.126;6.878;2023-02-01T18:17:12;7.00;99.90
52103;DHT22;38101;53.126;6.878;2023-02-01T18:19:38;6.90;99.90
52103;DHT22;38101;53.126;6.878;2023-02-01T18:22:04;7.00;99.90
52103;DHT22;38101;53.126;6.878;2023-02-01T18:24:30;6.90;99.90
52103;DHT22;38101;53.126;6.878;2023-02-01T18:26:58;6.90;99.90
52103;DHT22;38101;53.126;6.878;2023-02-01T18:29:24;6.90;99.90
52103;DHT22;38101;53.126;6.878;2023-02-01T18:31:50;6.90;99.90
52103;DHT22;38101;53.126;6.878;2023-02-01T18:34:16;7.00;99.90
52103;DHT22;38101;53.126;6.878;2023-02-01T18:36:47;6.90;99.90
52103;DHT22;38101;53.126;6.878;2023-02-01T18:39:13;6.90;99.90
52103;DHT22;38101;53.126;6.878;2023-02-01T18:41:39;6.90;99.90
52103;DHT22;38101;53.126;6.878;2023-02-01T18:44:05;6.90;99.90
52103;DHT22;38101;53.126;6.878;2023-02-01T18:46:36;6.90;99.90
52103;DHT22;38101;53.126;6.878;2023-02-01T18:49:02;6.90;99.90
52103;DHT22;38101;53.126;6.878;2023-02-01T18:51:28;6.90;99.90